Time;durP1;ratioP1;P1;durP2;ratioP2;P2;SDS_P1;SDS_P2;PMS_P1;PMS_P2;Temp;Humidity;BMP_temperature;BMP_pressure;BME280_temperature;BME280_humidity;BME280_pressure;Samples;Min_cycle;Max_cycle;Signal;HPM_P1;HPM_P2
2022/01/21 00:00:11;;;;;;;;;;;;;;;;;;5076411;28;1369;-73
2022/01/21 00:02:36;;;;;;;;;;;;;;;;;;5075568;28;1131;-73
2022/01/21 00:05:02;;;;;;;;;;;;;;;;;;5094099;28;734;-73
2022/01/21 00:07:27;;;;;;;;;;;;;;;;;;5093830;28;1010;-73
2022/01/21 00:09:52;;;;;;;;;;;;;;;;;;5058530;28;1304;-73
2022/01/21 00:12:17;;;;;;;;;;;;;;;;;;5093581;28;1989;-73
2022/01/21 00:14:43;;;;;;;;;;;;;;;;;;5093512;28;837;-72
2022/01/21 00:17:08;;;;;;;;;;;;;;;;;;5075337;28;1333;-72
2022/01/21 00:19:38;;;;;;;;;;;;;;;;;;5075461;28;967;-72
2022/01/21 00:30:17;;;;;;;;;;;;;;;;;;5081457;28;1883;-73
2022/01/21 00:32:44;;;;;;;;;;;;;;;;;;5086655;28;1322;-72
2022/01/21 00:35:10;;;;;;;;;;;;;;;;;;5099164;28;917;-72
2022/01/21 00:37:35;;;;;;;;;;;;;;;;;;5079745;28;1262;-72
2022/01/21 00:40:02;;;;;;;;;;;;;;;;;;5078947;28;1302;-72
2022/01/21 00:44:59;;;;;;;;;;;;;;;;;;5097418;28;863;-73
2022/01/21 00:47:25;;;;;;;;;;;;;;;;;;5097797;28;836;-73
2022/01/21 00:49:50;;;;;;;;;;;;;;;;;;5062783;28;1223;-73
2022/01/21 00:52:15;;;;;;;;;;;;;;;;;;5097333;28;1906;-72
2022/01/21 00:54:41;;;;;;;;;;;;;;;;;;5081354;28;856;-72
2022/01/21 00:57:06;;;;;;;;;;;;;;;;;;5083216;28;1199;-72
2022/01/21 00:59:31;;;;;;;;;;;;;;;;;;5082225;28;1156;-72
2022/01/21 01:01:57;;;;;;;;;;;;;;;;;;5100256;28;919;-72
2022/01/21 01:04:22;;;;;;;;;;;;;;;;;;5080785;28;1151;-72
2022/01/21 01:06:47;;;;;;;;;;;;;;;;;;5106556;28;966;-72
2022/01/21 01:09:12;;;;;;;;;;;;;;;;;;5113449;28;994;-72
2022/01/21 01:22:34;;;;;;;;;;;;;;;;;;5094533;28;1228;-72
2022/01/21 01:27:44;;;;;;;;;;;;;;;;;;5094403;28;631;-72
2022/01/21 01:30:14;;;;;;;;;;;;;;;;;;5059004;28;995;-72
2022/01/21 01:32:40;;;;;;;;;;;;;;;;;;5094165;28;1983;-73
2022/01/21 01:35:06;;;;;;;;;;;;;;;;;;5075692;28;1282;-73
2022/01/21 01:40:43;;;;;;;;;;;;;;;;;;5074693;28;983;-73
2022/01/21 01:50:51;;;;;;;;;;;;;;;;;;5091660;28;1961;-73
2022/01/21 01:53:17;;;;;;;;;;;;;;;;;;5092509;28;1088;-73
2022/01/21 01:55:43;;;;;;;;;;;;;;;;;;5073943;28;1412;-73
2022/01/21 01:58:12;;;;;;;;;;;;;;;;;;5091222;28;1054;-73
2022/01/21 02:00:38;;;;;;;;;;;;;;;;;;5074605;28;880;-73
2022/01/21 02:03:21;;;;;;;;;;;;;;;;;;5072344;28;1298;-71
2022/01/21 02:05:46;;;;;;;;;;;;;;;;;;5091904;28;832;-73
2022/01/21 02:08:11;;;;;;;;;;;;;;;;;;5091401;28;900;-73
2022/01/21 02:10:37;;;;;;;;;;;;;;;;;;5092788;28;1927;-78
2022/01/21 02:13:06;;;;;;;;;;;;;;;;;;5073407;28;1381;-80
2022/01/21 02:15:35;;;;;;;;;;;;;;;;;;5073875;28;1322;-80
2022/01/21 02:23:28;;;;;;;;;;;;;;;;;;5092248;28;614;-80
2022/01/21 02:25:53;;;;;;;;;;;;;;;;;;5073493;28;1032;-73
2022/01/21 02:28:19;;;;;;;;;;;;;;;;;;5073659;28;845;-73
2022/01/21 02:30:52;;;;;;;;;;;;;;;;;;5091667;28;1898;-73
2022/01/21 02:33:18;;;;;;;;;;;;;;;;;;5091390;28;801;-73
2022/01/21 02:35:43;;;;;;;;;;;;;;;;;;5056268;28;1254;-71
2022/01/21 02:38:08;;;;;;;;;;;;;;;;;;5091065;28;1050;-71
2022/01/21 02:40:33;;;;;;;;;;;;;;;;;;5073376;28;1248;-71
2022/01/21 02:42:59;;;;;;;;;;;;;;;;;;5055936;28;1282;-71
2022/01/21 02:45:24;;;;;;;;;;;;;;;;;;5072801;28;1014;-71
2022/01/21 02:47:50;;;;;;;;;;;;;;;;;;5065599;28;1203;-71
2022/01/21 02:50:16;;;;;;;;;;;;;;;;;;5071878;28;1093;-71
2022/01/21 02:52:54;;;;;;;;;;;;;;;;;;5074053;28;1910;-71
2022/01/21 02:55:19;;;;;;;;;;;;;;;;;;5041418;28;1200;-71
2022/01/21 02:57:45;;;;;;;;;;;;;;;;;;5071022;28;778;-71
2022/01/21 03:00:10;;;;;;;;;;;;;;;;;;5052635;28;833;-72
2022/01/21 03:02:35;;;;;;;;;;;;;;;;;;5052685;28;1055;-71
2022/01/21 03:05:07;;;;;;;;;;;;;;;;;;5052243;28;853;-71
2022/01/21 03:07:32;;;;;;;;;;;;;;;;;;5052711;28;1292;-71
2022/01/21 03:09:57;;;;;;;;;;;;;;;;;;5053037;28;1235;-71
2022/01/21 03:12:22;;;;;;;;;;;;;;;;;;5053113;28;1965;-72
2022/01/21 03:14:48;;;;;;;;;;;;;;;;;;5054718;28;1303;-71
2022/01/21 03:17:13;;;;;;;;;;;;;;;;;;5056438;28;999;-71
2022/01/21 03:19:38;;;;;;;;;;;;;;;;;;5056017;28;1214;-71
2022/01/21 03:22:05;;;;;;;;;;;;;;;;;;5066837;28;1096;-71
2022/01/21 03:24:30;;;;;;;;;;;;;;;;;;5072889;28;1199;-71
2022/01/21 03:26:55;;;;;;;;;;;;;;;;;;5073446;28;821;-72
2022/01/21 03:29:20;;;;;;;;;;;;;;;;;;5055732;28;1215;-71
2022/01/21 03:31:46;;;;;;;;;;;;;;;;;;5073986;28;1918;-71
2022/01/21 03:34:11;;;;;;;;;;;;;;;;;;5055419;28;1348;-71
2022/01/21 03:36:38;;;;;;;;;;;;;;;;;;5073631;28;920;-71
2022/01/21 03:39:03;;;;;;;;;;;;;;;;;;5073848;28;863;-71
2022/01/21 03:41:29;;;;;;;;;;;;;;;;;;5073061;28;915;-71
2022/01/21 03:43:54;;;;;;;;;;;;;;;;;;5072673;28;899;-79
2022/01/21 03:46:20;;;;;;;;;;;;;;;;;;5073635;28;904;-79
2022/01/21 03:48:48;;;;;;;;;;;;;;;;;;5055842;28;1338;-79
2022/01/21 03:51:13;;;;;;;;;;;;;;;;;;5056332;28;2298;-79
2022/01/21 03:53:38;;;;;;;;;;;;;;;;;;5074011;28;1223;-80
2022/01/21 03:56:04;;;;;;;;;;;;;;;;;;5072229;28;813;-79
2022/01/21 03:58:29;;;;;;;;;;;;;;;;;;5055571;28;1258;-79
2022/01/21 04:00:55;;;;;;;;;;;;;;;;;;5072347;28;832;-80
2022/01/21 04:03:21;;;;;;;;;;;;;;;;;;5073632;28;861;-79
2022/01/21 04:05:47;;;;;;;;;;;;;;;;;;5072050;28;920;-79
2022/01/21 04:08:12;;;;;;;;;;;;;;;;;;5072220;28;1336;-79
2022/01/21 04:10:48;;;;;;;;;;;;;;;;;;5071979;28;1906;-79
2022/01/21 04:13:17;;;;;;;;;;;;;;;;;;5071809;28;1275;-79
2022/01/21 04:15:44;;;;;;;;;;;;;;;;;;5072222;28;1250;-79
2022/01/21 04:18:09;;;;;;;;;;;;;;;;;;5054984;28;1159;-79
2022/01/21 04:20:35;;;;;;;;;;;;;;;;;;5074544;28;1221;-79
2022/01/21 04:23:00;;;;;;;;;;;;;;;;;;5074878;28;1233;-80
2022/01/21 04:25:25;;;;;;;;;;;;;;;;;;5074091;28;1160;-80
2022/01/21 04:27:50;;;;;;;;;;;;;;;;;;5074825;28;1264;-79
2022/01/21 04:30:16;;;;;;;;;;;;;;;;;;5092938;28;1239;-79
2022/01/21 04:32:41;;;;;;;;;;;;;;;;;;5093357;28;1965;-79
2022/01/21 04:35:07;;;;;;;;;;;;;;;;;;5075020;28;1289;-79
2022/01/21 04:37:32;;;;;;;;;;;;;;;;;;5075547;28;946;-79
2022/01/21 04:40:08;;;;;;;;;;;;;;;;;;5075331;28;828;-79
2022/01/21 04:48:01;;;;;;;;;;;;;;;;;;5078480;28;751;-79
2022/01/21 04:50:27;;;;;;;;;;;;;;;;;;5093854;28;1963;-78
2022/01/21 04:52:52;;;;;;;;;;;;;;;;;;5093625;28;841;-79
2022/01/21 04:55:18;;;;;;;;;;;;;;;;;;5093478;28;904;-79
2022/01/21 04:57:43;;;;;;;;;;;;;;;;;;5093631;28;825;-78
2022/01/21 05:00:09;;;;;;;;;;;;;;;;;;5057984;28;1188;-80
2022/01/21 05:02:35;;;;;;;;;;;;;;;;;;5075025;28;1176;-80
2022/01/21 05:05:03;;;;;;;;;;;;;;;;;;5092944;28;782;-80
2022/01/21 05:07:30;;;;;;;;;;;;;;;;;;5093120;28;896;-81
2022/01/21 05:09:55;;;;;;;;;;;;;;;;;;5092423;28;975;-81
2022/01/21 05:12:23;;;;;;;;;;;;;;;;;;5092820;28;1906;-80
2022/01/21 05:17:24;;;;;;;;;;;;;;;;;;5093139;28;875;-81
2022/01/21 05:19:50;;;;;;;;;;;;;;;;;;5093041;28;880;-80
2022/01/21 05:22:15;;;;;;;;;;;;;;;;;;5074102;28;1213;-80
2022/01/21 05:24:42;;;;;;;;;;;;;;;;;;5092250;28;926;-80
2022/01/21 05:27:08;;;;;;;;;;;;;;;;;;5074047;28;1162;-80
2022/01/21 05:29:34;;;;;;;;;;;;;;;;;;5092263;28;895;-80
2022/01/21 05:32:00;;;;;;;;;;;;;;;;;;5057366;28;1909;-72
2022/01/21 05:34:25;;;;;;;;;;;;;;;;;;5057134;28;1299;-72
2022/01/21 05:36:50;;;;;;;;;;;;;;;;;;5091127;28;1048;-71
2022/01/21 05:39:16;;;;;;;;;;;;;;;;;;5072673;28;1210;-72
2022/01/21 05:41:47;;;;;;;;;;;;;;;;;;5091163;28;1188;-72
2022/01/21 05:46:22;;;;;;;;;;;;;;;;;;5090536;28;1181;-73
2022/01/21 05:46:59;;;;;;;;;;;;;;;;;;5089881;28;1069;-73
2022/01/21 05:49:28;;;;;;;;;;;;;;;;;;5073272;28;1283;-73
2022/01/21 05:52:03;;;;;;;;;;;;;;;;;;5073176;28;1979;-73
2022/01/21 05:54:29;;;;;;;;;;;;;;;;;;5072518;28;1220;-73
2022/01/21 05:56:55;;;;;;;;;;;;;;;;;;5091138;28;987;-73
2022/01/21 05:59:20;;;;;;;;;;;;;;;;;;5073116;28;1277;-73
2022/01/21 06:01:46;;;;;;;;;;;;;;;;;;5073484;28;1192;-73
2022/01/21 06:04:11;;;;;;;;;;;;;;;;;;5091568;28;840;-73
2022/01/21 06:06:36;;;;;;;;;;;;;;;;;;5073482;28;1366;-73
2022/01/21 06:09:03;;;;;;;;;;;;;;;;;;5073538;28;1393;-73
2022/01/21 06:11:28;;;;;;;;;;;;;;;;;;5092004;28;1965;-73
2022/01/21 06:13:54;;;;;;;;;;;;;;;;;;5091411;28;845;-73
2022/01/21 06:16:19;;;;;;;;;;;;;;;;;;5073959;28;1282;-73
2022/01/21 06:18:45;;;;;;;;;;;;;;;;;;5091571;28;888;-73
2022/01/21 06:21:10;;;;;;;;;;;;;;;;;;5084378;28;1183;-73
2022/01/21 06:23:35;;;;;;;;;;;;;;;;;;5053442;28;1267;-72
2022/01/21 06:26:01;;;;;;;;;;;;;;;;;;5036433;28;1305;-72
2022/01/21 06:28:26;;;;;;;;;;;;;;;;;;5053307;28;1168;-72
2022/01/21 06:30:52;;;;;;;;;;;;;;;;;;5053588;28;1972;-72
2022/01/21 06:33:17;;;;;;;;;;;;;;;;;;5071602;28;875;-73
2022/01/21 06:35:43;;;;;;;;;;;;;;;;;;5052908;28;1192;-73
2022/01/21 06:38:08;;;;;;;;;;;;;;;;;;5053038;28;1363;-73
2022/01/21 06:40:33;;;;;;;;;;;;;;;;;;5053631;28;1286;-72
2022/01/21 06:43:02;;;;;;;;;;;;;;;;;;5052999;28;821;-73
2022/01/21 06:45:28;;;;;;;;;;;;;;;;;;5071479;28;832;-73
2022/01/21 06:47:54;;;;;;;;;;;;;;;;;;5052743;28;1184;-73
2022/01/21 06:50:19;;;;;;;;;;;;;;;;;;5039517;28;1414;-72
2022/01/21 06:52:44;;;;;;;;;;;;;;;;;;5074827;28;1898;-72
2022/01/21 06:55:10;;;;;;;;;;;;;;;;;;5074182;28;951;-72
2022/01/21 06:57:38;;;;;;;;;;;;;;;;;;5074742;28;979;-72
2022/01/21 07:00:04;;;;;;;;;;;;;;;;;;5056410;28;1073;-72
2022/01/21 07:02:30;;;;;;;;;;;;;;;;;;5056588;28;1159;-72
2022/01/21 07:04:55;;;;;;;;;;;;;;;;;;5056045;28;1170;-73
2022/01/21 07:07:20;;;;;;;;;;;;;;;;;;5074474;28;971;-72
2022/01/21 07:09:46;;;;;;;;;;;;;;;;;;5073901;28;920;-72
2022/01/21 07:12:11;;;;;;;;;;;;;;;;;;5074050;28;1911;-72
2022/01/21 07:14:36;;;;;;;;;;;;;;;;;;5056273;28;1151;-72
2022/01/21 07:17:02;;;;;;;;;;;;;;;;;;5039200;28;1156;-72
2022/01/21 07:19:28;;;;;;;;;;;;;;;;;;5073551;28;1064;-72
2022/01/21 07:21:54;;;;;;;;;;;;;;;;;;5048493;28;1272;-72
2022/01/21 07:24:19;;;;;;;;;;;;;;;;;;5072406;28;1167;-73
2022/01/21 07:26:44;;;;;;;;;;;;;;;;;;5072274;28;1162;-72
2022/01/21 07:29:10;;;;;;;;;;;;;;;;;;5072665;28;904;-74
2022/01/21 07:31:35;;;;;;;;;;;;;;;;;;5074203;28;1898;-72
2022/01/21 07:34:04;;;;;;;;;;;;;;;;;;5073492;28;841;-72
2022/01/21 07:36:30;;;;;;;;;;;;;;;;;;5071754;28;986;-72
2022/01/21 07:38:55;;;;;;;;;;;;;;;;;;5071525;28;1235;-72
2022/01/21 07:41:20;;;;;;;;;;;;;;;;;;5074127;28;1005;-73
2022/01/21 07:43:45;;;;;;;;;;;;;;;;;;5073703;28;829;-73
2022/01/21 07:46:11;;;;;;;;;;;;;;;;;;5072199;28;841;-73
2022/01/21 07:48:36;;;;;;;;;;;;;;;;;;5073859;28;931;-73
2022/01/21 07:51:01;;;;;;;;;;;;;;;;;;5072196;28;1893;-73
2022/01/21 07:53:26;;;;;;;;;;;;;;;;;;5073579;28;884;-74
2022/01/21 07:55:52;;;;;;;;;;;;;;;;;;5071711;28;1250;-73
2022/01/21 07:58:18;;;;;;;;;;;;;;;;;;5070905;28;1230;-73
2022/01/21 08:00:43;;;;;;;;;;;;;;;;;;5071970;28;825;-73
2022/01/21 08:03:09;;;;;;;;;;;;;;;;;;5072144;28;943;-73
2022/01/21 08:05:34;;;;;;;;;;;;;;;;;;5072515;28;1239;-73
2022/01/21 08:08:00;;;;;;;;;;;;;;;;;;5072842;28;1197;-74
2022/01/21 08:10:26;;;;;;;;;;;;;;;;;;5074802;28;840;-80
2022/01/21 08:12:51;;;;;;;;;;;;;;;;;;5072544;28;1894;-80
2022/01/21 08:15:17;;;;;;;;;;;;;;;;;;5056270;28;1172;-81
2022/01/21 08:17:42;;;;;;;;;;;;;;;;;;5074446;28;754;-82
2022/01/21 08:20:08;;;;;;;;;;;;;;;;;;5073597;28;1253;-81
2022/01/21 08:22:33;;;;;;;;;;;;;;;;;;5075674;28;1073;-81
2022/01/21 08:24:59;;;;;;;;;;;;;;;;;;5094713;28;1009;-81
2022/01/21 08:27:24;;;;;;;;;;;;;;;;;;5076829;28;1449;-82
2022/01/21 08:29:50;;;;;;;;;;;;;;;;;;5094634;28;856;-81
2022/01/21 08:32:15;;;;;;;;;;;;;;;;;;5093985;28;1952;-82
2022/01/21 08:34:41;;;;;;;;;;;;;;;;;;5094284;28;809;-81
2022/01/21 08:37:06;;;;;;;;;;;;;;;;;;5093977;28;850;-80
2022/01/21 08:39:32;;;;;;;;;;;;;;;;;;5093836;28;869;-80
2022/01/21 08:41:57;;;;;;;;;;;;;;;;;;5093658;28;848;-80
2022/01/21 08:44:22;;;;;;;;;;;;;;;;;;5075330;28;1316;-80
2022/01/21 08:46:48;;;;;;;;;;;;;;;;;;5093198;28;853;-80
2022/01/21 08:49:13;;;;;;;;;;;;;;;;;;5075136;28;1247;-81
2022/01/21 08:51:53;;;;;;;;;;;;;;;;;;5093240;28;1977;-80
2022/01/21 08:54:19;;;;;;;;;;;;;;;;;;5093509;28;849;-80
2022/01/21 08:56:46;;;;;;;;;;;;;;;;;;5074741;28;1140;-81
2022/01/21 08:59:11;;;;;;;;;;;;;;;;;;5093418;28;821;-80
2022/01/21 09:01:36;;;;;;;;;;;;;;;;;;5093345;28;849;-80
2022/01/21 09:04:01;;;;;;;;;;;;;;;;;;5057340;28;1331;-80
2022/01/21 09:06:29;;;;;;;;;;;;;;;;;;5092698;28;900;-79
2022/01/21 09:08:55;;;;;;;;;;;;;;;;;;5074432;28;1275;-79
2022/01/21 09:11:20;;;;;;;;;;;;;;;;;;5092712;28;1913;-80
2022/01/21 09:13:46;;;;;;;;;;;;;;;;;;5092443;28;903;-80
2022/01/21 09:16:11;;;;;;;;;;;;;;;;;;5092619;28;940;-80
2022/01/21 09:18:48;;;;;;;;;;;;;;;;;;5092737;28;844;-80
2022/01/21 09:21:14;;;;;;;;;;;;;;;;;;5092127;28;1064;-80
2022/01/21 09:23:40;;;;;;;;;;;;;;;;;;5093014;28;789;-81
2022/01/21 09:26:06;;;;;;;;;;;;;;;;;;5073913;28;1259;-82
2022/01/21 09:28:31;;;;;;;;;;;;;;;;;;5074621;28;1287;-82
2022/01/21 09:30:57;;;;;;;;;;;;;;;;;;5092079;28;1969;-81
2022/01/21 09:33:22;;;;;;;;;;;;;;;;;;5092872;28;978;-82
2022/01/21 09:35:47;;;;;;;;;;;;;;;;;;5058084;28;1284;-82
2022/01/21 09:38:13;;;;;;;;;;;;;;;;;;5092345;28;896;-74
2022/01/21 09:40:40;;;;;;;;;;;;;;;;;;5074127;28;1123;-73
2022/01/21 09:43:07;;;;;;;;;;;;;;;;;;5073464;28;1313;-73
2022/01/21 09:45:32;;;;;;;;;;;;;;;;;;5092064;28;999;-73
2022/01/21 09:47:59;;;;;;;;;;;;;;;;;;5073488;28;844;-73
2022/01/21 09:50:24;;;;;;;;;;;;;;;;;;5073601;28;1360;-73
2022/01/21 09:52:51;;;;;;;;;;;;;;;;;;5092133;28;1910;-73
2022/01/21 09:55:20;;;;;;;;;;;;;;;;;;5092150;28;899;-74
2022/01/21 09:57:46;;;;;;;;;;;;;;;;;;5091669;28;861;-74
2022/01/21 10:00:12;;;;;;;;;;;;;;;;;;5073657;28;1124;-73
2022/01/21 10:02:39;;;;;;;;;;;;;;;;;;5092384;28;1015;-74
2022/01/21 10:05:05;;;;;;;;;;;;;;;;;;5078250;28;1175;-73
2022/01/21 10:07:30;;;;;;;;;;;;;;;;;;5096121;28;1109;-74
2022/01/21 10:09:57;;;;;;;;;;;;;;;;;;5089617;28;1054;-73
2022/01/21 10:12:23;;;;;;;;;;;;;;;;;;5094167;28;1902;-74
2022/01/21 10:14:49;;;;;;;;;;;;;;;;;;5076866;28;1267;-73
2022/01/21 10:17:14;;;;;;;;;;;;;;;;;;5077385;28;1369;-73
2022/01/21 10:19:40;;;;;;;;;;;;;;;;;;5077175;28;805;-74
2022/01/21 10:22:11;;;;;;;;;;;;;;;;;;5077255;28;1239;-73
2022/01/21 10:24:50;;;;;;;;;;;;;;;;;;5079304;28;1217;-74
2022/01/21 10:27:26;;;;;;;;;;;;;;;;;;5099688;28;809;-73
2022/01/21 10:29:52;;;;;;;;;;;;;;;;;;5099140;28;1010;-73
2022/01/21 10:32:31;;;;;;;;;;;;;;;;;;5080910;28;1918;-74
2022/01/21 10:34:56;;;;;;;;;;;;;;;;;;5098842;28;924;-73
2022/01/21 10:37:21;;;;;;;;;;;;;;;;;;5080579;28;876;-73
2022/01/21 10:40:05;;;;;;;;;;;;;;;;;;5099198;28;844;-74
2022/01/21 10:42:31;;;;;;;;;;;;;;;;;;5099600;28;924;-73
2022/01/21 10:44:57;;;;;;;;;;;;;;;;;;5081395;28;1179;-73
2022/01/21 10:47:30;;;;;;;;;;;;;;;;;;5077952;28;1175;-73
2022/01/21 10:49:58;;;;;;;;;;;;;;;;;;5078324;28;1292;-73
2022/01/21 10:52:56;;;;;;;;;;;;;;;;;;5097042;28;1967;-73
2022/01/21 10:55:32;;;;;;;;;;;;;;;;;;5052936;28;1321;-73
2022/01/21 10:58:08;;;;;;;;;;;;;;;;;;5088461;28;1165;-73
2022/01/21 11:00:34;;;;;;;;;;;;;;;;;;5097173;28;900;-73
2022/01/21 11:03:13;;;;;;;;;;;;;;;;;;5078144;28;1160;-73
2022/01/21 11:05:45;;;;;;;;;;;;;;;;;;5096193;28;845;-73
2022/01/21 11:08:12;;;;;;;;;;;;;;;;;;5095942;28;876;-73
2022/01/21 11:10:40;;;;;;;;;;;;;;;;;;5060630;28;1350;-73
2022/01/21 11:13:16;;;;;;;;;;;;;;;;;;5095621;28;1965;-73
2022/01/21 11:15:46;;;;;;;;;;;;;;;;;;5077691;28;1411;-72
2022/01/21 11:18:15;;;;;;;;;;;;;;;;;;5079965;28;1370;-80
2022/01/21 11:20:41;;;;;;;;;;;;;;;;;;5064821;28;1278;-79
2022/01/21 11:23:08;;;;;;;;;;;;;;;;;;5099540;28;1096;-80
2022/01/21 11:26:03;;;;;;;;;;;;;;;;;;5080684;28;1260;-79
2022/01/21 11:28:48;;;;;;;;;;;;;;;;;;5095456;28;813;-80
2022/01/21 11:31:14;;;;;;;;;;;;;;;;;;5094683;28;1893;-79
2022/01/21 11:33:40;;;;;;;;;;;;;;;;;;5095112;28;966;-80
2022/01/21 11:36:05;;;;;;;;;;;;;;;;;;5076548;28;1273;-79
2022/01/21 11:38:33;;;;;;;;;;;;;;;;;;5077497;28;1330;-80
2022/01/21 11:40:59;;;;;;;;;;;;;;;;;;5094840;28;956;-73
2022/01/21 11:43:25;;;;;;;;;;;;;;;;;;5076618;28;1325;-73
2022/01/21 11:50:55;;;;;;;;;;;;;;;;;;5094156;28;1961;-73
2022/01/21 11:53:40;;;;;;;;;;;;;;;;;;5058143;28;1211;-72
2022/01/21 11:56:25;;;;;;;;;;;;;;;;;;5059896;28;1216;-73
2022/01/21 11:59:00;;;;;;;;;;;;;;;;;;5076176;28;1136;-81
2022/01/21 12:01:46;;;;;;;;;;;;;;;;;;5075696;28;1012;-80
2022/01/21 12:04:12;;;;;;;;;;;;;;;;;;5075803;28;888;-80
2022/01/21 12:06:37;;;;;;;;;;;;;;;;;;5057540;28;1216;-80
2022/01/21 12:09:04;;;;;;;;;;;;;;;;;;5056302;28;779;-78
2022/01/21 12:11:31;;;;;;;;;;;;;;;;;;5056971;28;1894;-78
2022/01/21 12:13:58;;;;;;;;;;;;;;;;;;5074200;28;924;-77
2022/01/21 12:16:57;;;;;;;;;;;;;;;;;;5056564;28;1359;-78
2022/01/21 12:19:27;;;;;;;;;;;;;;;;;;5056046;28;1318;-78
2022/01/21 12:21:53;;;;;;;;;;;;;;;;;;5082863;28;1121;-78
2022/01/21 12:24:54;;;;;;;;;;;;;;;;;;5075702;28;1371;-78
2022/01/21 12:27:21;;;;;;;;;;;;;;;;;;4995035;28;1252;-78
2022/01/21 12:29:47;;;;;;;;;;;;;;;;;;5063603;28;1156;-79
2022/01/21 12:32:19;;;;;;;;;;;;;;;;;;5075360;28;1970;-78
2022/01/21 12:34:57;;;;;;;;;;;;;;;;;;5075707;28;1310;-77
2022/01/21 12:37:26;;;;;;;;;;;;;;;;;;5093641;28;861;-78
2022/01/21 12:39:51;;;;;;;;;;;;;;;;;;5093546;28;899;-78
2022/01/21 12:42:19;;;;;;;;;;;;;;;;;;5058037;28;1294;-78
2022/01/21 12:44:44;;;;;;;;;;;;;;;;;;5075087;28;1229;-78
2022/01/21 12:47:30;;;;;;;;;;;;;;;;;;5057545;28;1302;-78
2022/01/21 12:49:56;;;;;;;;;;;;;;;;;;5093342;28;801;-80
2022/01/21 12:52:43;;;;;;;;;;;;;;;;;;5073797;28;1906;-79
2022/01/21 12:57:54;;;;;;;;;;;;;;;;;;5077924;28;620;-79
2022/01/21 13:00:19;;;;;;;;;;;;;;;;;;5092641;28;857;-79
2022/01/21 13:02:49;;;;;;;;;;;;;;;;;;5092849;28;927;-79
2022/01/21 13:05:14;;;;;;;;;;;;;;;;;;5074028;28;1270;-79
2022/01/21 13:07:42;;;;;;;;;;;;;;;;;;5093375;28;896;-79
2022/01/21 13:10:07;;;;;;;;;;;;;;;;;;5092671;28;864;-79
2022/01/21 13:12:45;;;;;;;;;;;;;;;;;;5074516;28;1969;-79
2022/01/21 13:15:11;;;;;;;;;;;;;;;;;;5074126;28;1273;-79
2022/01/21 13:17:36;;;;;;;;;;;;;;;;;;5074435;28;892;-79
2022/01/21 13:20:03;;;;;;;;;;;;;;;;;;5073996;28;848;-79
2022/01/21 13:22:35;;;;;;;;;;;;;;;;;;5091813;28;1257;-72
2022/01/21 13:27:30;;;;;;;;;;;;;;;;;;5092448;28;1038;-72
2022/01/21 13:30:06;;;;;;;;;;;;;;;;;;5092469;28;907;-72
2022/01/21 13:32:32;;;;;;;;;;;;;;;;;;5091945;28;1909;-72
2022/01/21 13:35:06;;;;;;;;;;;;;;;;;;5074043;28;887;-72
2022/01/21 13:37:31;;;;;;;;;;;;;;;;;;5092003;28;825;-72
2022/01/21 13:39:57;;;;;;;;;;;;;;;;;;5091990;28;947;-72
2022/01/21 13:42:24;;;;;;;;;;;;;;;;;;5057418;28;1160;-72
2022/01/21 13:44:51;;;;;;;;;;;;;;;;;;5092315;28;817;-72
2022/01/21 13:47:25;;;;;;;;;;;;;;;;;;5073641;28;1287;-72
2022/01/21 13:49:51;;;;;;;;;;;;;;;;;;5092124;28;908;-72
2022/01/21 13:52:16;;;;;;;;;;;;;;;;;;5091447;28;1974;-73
2022/01/21 13:54:43;;;;;;;;;;;;;;;;;;5073262;28;1156;-73
2022/01/21 13:57:08;;;;;;;;;;;;;;;;;;5091368;28;836;-72
2022/01/21 13:59:40;;;;;;;;;;;;;;;;;;5072350;28;908;-73
2022/01/21 14:02:07;;;;;;;;;;;;;;;;;;5091192;28;1001;-72
2022/01/21 14:04:33;;;;;;;;;;;;;;;;;;5091436;28;885;-73
2022/01/21 14:06:58;;;;;;;;;;;;;;;;;;5091381;28;892;-72
2022/01/21 14:09:24;;;;;;;;;;;;;;;;;;5072973;28;826;-73
2022/01/21 14:11:49;;;;;;;;;;;;;;;;;;5073354;28;1902;-72
2022/01/21 14:14:16;;;;;;;;;;;;;;;;;;5072900;28;1168;-72
2022/01/21 14:16:51;;;;;;;;;;;;;;;;;;5073367;28;1309;-72
2022/01/21 14:19:20;;;;;;;;;;;;;;;;;;5091022;28;950;-72
2022/01/21 14:21:48;;;;;;;;;;;;;;;;;;5072644;28;1424;-73
2022/01/21 14:24:15;;;;;;;;;;;;;;;;;;5091451;28;892;-72
2022/01/21 14:27:01;;;;;;;;;;;;;;;;;;5092392;28;992;-74
2022/01/21 14:29:34;;;;;;;;;;;;;;;;;;5091217;28;1278;-73
2022/01/21 14:32:02;;;;;;;;;;;;;;;;;;5073162;28;1972;-72
2022/01/21 14:34:30;;;;;;;;;;;;;;;;;;5091521;28;936;-73
2022/01/21 14:37:03;;;;;;;;;;;;;;;;;;5072867;28;1211;-73
2022/01/21 14:39:32;;;;;;;;;;;;;;;;;;5090374;28;761;-73
2022/01/21 14:41:57;;;;;;;;;;;;;;;;;;5072837;28;1207;-73
2022/01/21 14:44:32;;;;;;;;;;;;;;;;;;5072638;28;1299;-73
2022/01/21 14:47:04;;;;;;;;;;;;;;;;;;5091010;28;861;-73
2022/01/21 14:49:29;;;;;;;;;;;;;;;;;;5072482;28;1155;-73
2022/01/21 14:52:33;;;;;;;;;;;;;;;;;;5072488;28;1993;-74
2022/01/21 14:54:45;;;;;;;;;;;;;;;;;;5090349;28;968;-73
2022/01/21 14:57:11;;;;;;;;;;;;;;;;;;5056335;28;1168;-74
2022/01/21 14:59:49;;;;;;;;;;;;;;;;;;5055905;28;1165;-74
2022/01/21 15:02:14;;;;;;;;;;;;;;;;;;5090939;28;1333;-73
2022/01/21 15:04:40;;;;;;;;;;;;;;;;;;5055970;28;1178;-74
2022/01/21 15:07:12;;;;;;;;;;;;;;;;;;5073150;28;877;-73
2022/01/21 15:09:42;;;;;;;;;;;;;;;;;;5072958;28;1278;-73
2022/01/21 15:14:52;;;;;;;;;;;;;;;;;;5095493;28;751;-73
2022/01/21 15:17:18;;;;;;;;;;;;;;;;;;5094946;28;844;-73
2022/01/21 15:19:44;;;;;;;;;;;;;;;;;;5076599;28;1182;-74
2022/01/21 15:22:11;;;;;;;;;;;;;;;;;;5076003;28;1191;-73
2022/01/21 15:24:37;;;;;;;;;;;;;;;;;;5094128;28;895;-74
2022/01/21 15:27:02;;;;;;;;;;;;;;;;;;5094718;28;897;-72
2022/01/21 15:29:29;;;;;;;;;;;;;;;;;;5094875;28;829;-72
2022/01/21 15:31:54;;;;;;;;;;;;;;;;;;5076232;28;2003;-74
2022/01/21 15:34:19;;;;;;;;;;;;;;;;;;5060036;28;1235;-73
2022/01/21 15:36:45;;;;;;;;;;;;;;;;;;5094667;28;939;-73
2022/01/21 15:39:10;;;;;;;;;;;;;;;;;;5094610;28;896;-74
2022/01/21 15:41:36;;;;;;;;;;;;;;;;;;5076556;28;805;-73
2022/01/21 15:44:01;;;;;;;;;;;;;;;;;;5076869;28;750;-82
2022/01/21 15:46:27;;;;;;;;;;;;;;;;;;5077013;28;1166;-81
2022/01/21 15:48:53;;;;;;;;;;;;;;;;;;5095100;28;895;-81
2022/01/21 15:51:19;;;;;;;;;;;;;;;;;;5076819;28;1918;-81
2022/01/21 15:53:45;;;;;;;;;;;;;;;;;;5075983;28;1196;-81
2022/01/21 15:56:11;;;;;;;;;;;;;;;;;;5094169;28;864;-79
2022/01/21 15:58:36;;;;;;;;;;;;;;;;;;5076263;28;1277;-79
2022/01/21 16:01:01;;;;;;;;;;;;;;;;;;5075819;28;1261;-81
2022/01/21 16:03:32;;;;;;;;;;;;;;;;;;5075703;28;1164;-81
2022/01/21 16:05:58;;;;;;;;;;;;;;;;;;5094102;28;828;-81
2022/01/21 16:08:24;;;;;;;;;;;;;;;;;;5094354;28;824;-79
2022/01/21 16:10:49;;;;;;;;;;;;;;;;;;5058806;28;1156;-78
2022/01/21 16:13:14;;;;;;;;;;;;;;;;;;5093612;28;1871;-78
2022/01/21 16:15:40;;;;;;;;;;;;;;;;;;5075161;28;802;-78
2022/01/21 16:18:05;;;;;;;;;;;;;;;;;;5075455;28;856;-78
2022/01/21 16:23:16;;;;;;;;;;;;;;;;;;5077644;28;1322;-78
2022/01/21 16:25:42;;;;;;;;;;;;;;;;;;5075158;28;943;-78
2022/01/21 16:28:07;;;;;;;;;;;;;;;;;;5075980;28;778;-78
2022/01/21 16:30:33;;;;;;;;;;;;;;;;;;5075581;28;769;-78
2022/01/21 16:32:58;;;;;;;;;;;;;;;;;;5075624;28;1913;-78
2022/01/21 16:35:24;;;;;;;;;;;;;;;;;;5074884;28;1104;-77
2022/01/21 16:37:49;;;;;;;;;;;;;;;;;;5093614;28;876;-78
2022/01/21 16:40:14;;;;;;;;;;;;;;;;;;5075220;28;1250;-78
2022/01/21 16:42:41;;;;;;;;;;;;;;;;;;5093971;28;872;-80
2022/01/21 16:45:10;;;;;;;;;;;;;;;;;;5093531;28;896;-80
2022/01/21 16:47:36;;;;;;;;;;;;;;;;;;5075586;28;1408;-79
2022/01/21 16:50:02;;;;;;;;;;;;;;;;;;5093838;28;953;-78
2022/01/21 16:52:27;;;;;;;;;;;;;;;;;;5093344;28;1951;-79
2022/01/21 16:54:53;;;;;;;;;;;;;;;;;;5075241;28;1143;-79
2022/01/21 16:57:19;;;;;;;;;;;;;;;;;;5058975;28;1053;-78
2022/01/21 16:59:45;;;;;;;;;;;;;;;;;;5093382;28;775;-78
2022/01/21 17:02:10;;;;;;;;;;;;;;;;;;5075073;28;1272;-74
2022/01/21 17:04:38;;;;;;;;;;;;;;;;;;5074886;28;1276;-74
2022/01/21 17:07:04;;;;;;;;;;;;;;;;;;5058317;28;1346;-73
2022/01/21 17:09:29;;;;;;;;;;;;;;;;;;5074708;28;1127;-73
2022/01/21 17:11:55;;;;;;;;;;;;;;;;;;5075458;28;1905;-73
2022/01/21 17:14:20;;;;;;;;;;;;;;;;;;5058142;28;1097;-72
2022/01/21 17:16:45;;;;;;;;;;;;;;;;;;5058176;28;1331;-73
2022/01/21 17:19:12;;;;;;;;;;;;;;;;;;5075086;28;1135;-72
2022/01/21 17:21:38;;;;;;;;;;;;;;;;;;5092816;28;845;-72
2022/01/21 17:24:03;;;;;;;;;;;;;;;;;;5074223;28;1236;-74
2022/01/21 17:26:29;;;;;;;;;;;;;;;;;;5058054;28;1464;-72
2022/01/21 17:28:54;;;;;;;;;;;;;;;;;;5092613;28;919;-74
2022/01/21 17:31:19;;;;;;;;;;;;;;;;;;5074743;28;1901;-74
2022/01/21 17:33:46;;;;;;;;;;;;;;;;;;5092430;28;891;-71
2022/01/21 17:36:11;;;;;;;;;;;;;;;;;;5057335;28;1340;-74
2022/01/21 17:38:37;;;;;;;;;;;;;;;;;;5057216;28;1201;-74
2022/01/21 17:41:02;;;;;;;;;;;;;;;;;;5072934;28;1273;-71
2022/01/21 17:43:27;;;;;;;;;;;;;;;;;;5073699;28;876;-79
2022/01/21 17:45:54;;;;;;;;;;;;;;;;;;5074357;28;1023;-79
2022/01/21 17:48:19;;;;;;;;;;;;;;;;;;5058008;28;1229;-80
2022/01/21 17:50:44;;;;;;;;;;;;;;;;;;5074637;28;1313;-79
2022/01/21 17:53:15;;;;;;;;;;;;;;;;;;5092368;28;1977;-79
2022/01/21 17:55:42;;;;;;;;;;;;;;;;;;5091877;28;908;-79
2022/01/21 17:58:08;;;;;;;;;;;;;;;;;;5057159;28;1315;-79
2022/01/21 18:00:33;;;;;;;;;;;;;;;;;;5092217;28;941;-79
2022/01/21 18:02:58;;;;;;;;;;;;;;;;;;5092196;28;1007;-79
2022/01/21 18:05:26;;;;;;;;;;;;;;;;;;5092408;28;789;-80
2022/01/21 18:07:51;;;;;;;;;;;;;;;;;;5092058;28;837;-80
2022/01/21 18:10:28;;;;;;;;;;;;;;;;;;5057005;28;1321;-80
2022/01/21 18:12:54;;;;;;;;;;;;;;;;;;5075636;28;1922;-79
2022/01/21 18:15:19;;;;;;;;;;;;;;;;;;5073286;28;1147;-79